sensor_id;sensor_type;location;lat;lon;timestamp;temperature;humidity
3268;DHT22;1646;52.450;13.326;2023-06-22T00:00:44;23.60;99.90
3268;DHT22;1646;52.450;13.326;2023-06-22T00:05:42;23.50;99.90
3268;DHT22;1646;52.450;13.326;2023-06-22T00:10:41;23.40;99.90
3268;DHT22;1646;52.450;13.326;2023-06-22T00:15:41;23.40;99.90
3268;DHT22;1646;52.450;13.326;2023-06-22T00:20:39;23.40;99.90
3268;DHT22;1646;52.450;13.326;2023-06-22T00:25:38;23.40;99.90
3268;DHT22;1646;52.450;13.326;2023-06-22T00:30:38;23.30;99.90
3268;DHT22;1646;52.450;13.326;2023-06-22T00:35:37;23.30;99.90
3268;DHT22;1646;52.450;13.326;2023-06-22T00:40:38;23.30;99.90
3268;DHT22;1646;52.450;13.326;2023-06-22T00:45:38;23.20;99.90
3268;DHT22;1646;52.450;13.326;2023-06-22T00:50:38;23.20;99.90
3268;DHT22;1646;52.450;13.326;2023-06-22T00:55:37;23.10;99.90
3268;DHT22;1646;52.450;13.326;2023-06-22T01:00:38;23.10;99.90
3268;DHT22;1646;52.450;13.326;2023-06-22T01:05:39;23.10;99.90
3268;DHT22;1646;52.450;13.326;2023-06-22T01:10:41;23.00;99.90
3268;DHT22;1646;52.450;13.326;2023-06-22T01:15:44;23.00;99.90
3268;DHT22;1646;52.450;13.326;2023-06-22T01:20:47;23.00;99.90
3268;DHT22;1646;52.450;13.326;2023-06-22T01:25:50;22.90;99.90
3268;DHT22;1646;52.450;13.326;2023-06-22T01:30:53;22.90;99.90
3268;DHT22;1646;52.450;13.326;2023-06-22T01:36:01;22.80;99.90
3268;DHT22;1646;52.450;13.326;2023-06-22T01:40:59;22.80;99.90
3268;DHT22;1646;52.450;13.326;2023-06-22T01:46:01;22.80;99.90
3268;DHT22;1646;52.450;13.326;2023-06-22T01:51:00;22.70;99.90
3268;DHT22;1646;52.450;13.326;2023-06-22T01:55:58;22.70;99.90
3268;DHT22;1646;52.450;13.326;2023-06-22T02:01:05;22.80;99.90
3268;DHT22;1646;52.450;13.326;2023-06-22T02:06:10;22.80;99.90
3268;DHT22;1646;52.450;13.326;2023-06-22T02:11:10;22.80;99.90
3268;DHT22;1646;52.450;13.326;2023-06-22T02:16:12;22.80;99.90
3268;DHT22;1646;52.450;13.326;2023-06-22T02:21:10;22.80;99.90
3268;DHT22;1646;52.450;13.326;2023-06-22T02:26:08;22.70;99.90
3268;DHT22;1646;52.450;13.326;2023-06-22T02:31:07;22.70;99.90
3268;DHT22;1646;52.450;13.326;2023-06-22T02:36:06;22.60;99.90
3268;DHT22;1646;52.450;13.326;2023-06-22T02:41:06;22.60;99.90
3268;DHT22;1646;52.450;13.326;2023-06-22T02:46:04;22.60;99.90
3268;DHT22;1646;52.450;13.326;2023-06-22T02:51:03;22.60;99.90
3268;DHT22;1646;52.450;13.326;2023-06-22T02:56:03;22.60;99.90
3268;DHT22;1646;52.450;13.326;2023-06-22T03:01:06;22.50;99.90
3268;DHT22;1646;52.450;13.326;2023-06-22T03:06:06;22.60;99.90
3268;DHT22;1646;52.450;13.326;2023-06-22T03:11:06;22.60;99.90
3268;DHT22;1646;52.450;13.326;2023-06-22T03:16:05;22.60;99.90
3268;DHT22;1646;52.450;13.326;2023-06-22T03:21:04;22.60;99.90
3268;DHT22;1646;52.450;13.326;2023-06-22T03:26:02;22.60;99.90
3268;DHT22;1646;52.450;13.326;2023-06-22T03:31:03;22.60;99.90
3268;DHT22;1646;52.450;13.326;2023-06-22T03:36:05;22.60;99.90
3268;DHT22;1646;52.450;13.326;2023-06-22T03:41:04;22.60;99.90
3268;DHT22;1646;52.450;13.326;2023-06-22T03:46:03;22.60;99.90
3268;DHT22;1646;52.450;13.326;2023-06-22T03:51:02;22.70;99.90
3268;DHT22;1646;52.450;13.326;2023-06-22T03:56:01;22.70;99.90
3268;DHT22;1646;52.450;13.326;2023-06-22T04:00:59;22.70;99.90
3268;DHT22;1646;52.450;13.326;2023-06-22T04:05:59;22.70;99.90
3268;DHT22;1646;52.450;13.326;2023-06-22T04:10:57;22.60;99.90
3268;DHT22;1646;52.450;13.326;2023-06-22T04:15:55;22.60;99.90
3268;DHT22;1646;52.450;13.326;2023-06-22T04:20:54;22.60;99.90
3268;DHT22;1646;52.450;13.326;2023-06-22T04:25:53;22.60;99.90
3268;DHT22;1646;52.450;13.326;2023-06-22T04:30:53;22.70;99.90
3268;DHT22;1646;52.450;13.326;2023-06-22T04:35:55;22.80;99.90
3268;DHT22;1646;52.450;13.326;2023-06-22T04:40:55;22.80;99.90
3268;DHT22;1646;52.450;13.326;2023-06-22T04:45:53;22.80;99.90
3268;DHT22;1646;52.450;13.326;2023-06-22T04:50:52;22.90;99.90
3268;DHT22;1646;52.450;13.326;2023-06-22T04:55:50;23.00;99.90
3268;DHT22;1646;52.450;13.326;2023-06-22T05:00:51;23.00;99.90
3268;DHT22;1646;52.450;13.326;2023-06-22T05:05:50;23.00;99.90
3268;DHT22;1646;52.450;13.326;2023-06-22T05:10:48;23.10;99.90
3268;DHT22;1646;52.450;13.326;2023-06-22T05:16:02;23.20;99.90
3268;DHT22;1646;52.450;13.326;2023-06-22T05:21:01;23.40;99.90
3268;DHT22;1646;52.450;13.326;2023-06-22T05:26:00;23.50;99.90
3268;DHT22;1646;52.450;13.326;2023-06-22T05:30:58;23.70;99.90
3268;DHT22;1646;52.450;13.326;2023-06-22T05:35:57;24.00;99.90
3268;DHT22;1646;52.450;13.326;2023-06-22T05:40:56;24.00;99.90
3268;DHT22;1646;52.450;13.326;2023-06-22T05:45:54;24.10;99.90
3268;DHT22;1646;52.450;13.326;2023-06-22T05:50:53;24.10;99.90
3268;DHT22;1646;52.450;13.326;2023-06-22T05:55:53;24.10;99.90
3268;DHT22;1646;52.450;13.326;2023-06-22T06:00:51;24.20;99.90
3268;DHT22;1646;52.450;13.326;2023-06-22T06:05:49;24.30;99.90
3268;DHT22;1646;52.450;13.326;2023-06-22T06:10:48;24.40;99.90
3268;DHT22;1646;52.450;13.326;2023-06-22T06:15:47;24.50;99.90
3268;DHT22;1646;52.450;13.326;2023-06-22T06:20:48;24.50;99.90
3268;DHT22;1646;52.450;13.326;2023-06-22T06:25:46;24.80;99.90
3268;DHT22;1646;52.450;13.326;2023-06-22T06:30:44;25.00;99.90
3268;DHT22;1646;52.450;13.326;2023-06-22T06:35:45;25.30;99.90
3268;DHT22;1646;52.450;13.326;2023-06-22T06:40:43;25.50;99.90
3268;DHT22;1646;52.450;13.326;2023-06-22T06:45:42;25.70;99.90
3268;DHT22;1646;52.450;13.326;2023-06-22T06:50:40;25.70;99.90
3268;DHT22;1646;52.450;13.326;2023-06-22T06:55:42;25.70;99.90
3268;DHT22;1646;52.450;13.326;2023-06-22T07:00:42;25.90;99.90
3268;DHT22;1646;52.450;13.326;2023-06-22T07:05:41;26.20;99.90
3268;DHT22;1646;52.450;13.326;2023-06-22T07:10:39;26.30;99.90
3268;DHT22;1646;52.450;13.326;2023-06-22T07:15:39;26.40;99.90
3268;DHT22;1646;52.450;13.326;2023-06-22T07:20:37;26.40;99.90
3268;DHT22;1646;52.450;13.326;2023-06-22T07:25:36;26.60;99.90
3268;DHT22;1646;52.450;13.326;2023-06-22T07:30:35;27.00;99.90
3268;DHT22;1646;52.450;13.326;2023-06-22T07:35:35;27.10;99.90
3268;DHT22;1646;52.450;13.326;2023-06-22T07:40:33;27.30;99.90
3268;DHT22;1646;52.450;13.326;2023-06-22T07:45:32;27.50;99.90
3268;DHT22;1646;52.450;13.326;2023-06-22T07:50:32;27.90;99.90
3268;DHT22;1646;52.450;13.326;2023-06-22T07:55:32;28.00;99.90
3268;DHT22;1646;52.450;13.326;2023-06-22T08:00:30;27.90;99.90
3268;DHT22;1646;52.450;13.326;2023-06-22T08:05:30;27.50;99.90
3268;DHT22;1646;52.450;13.326;2023-06-22T08:10:28;27.40;99.90
3268;DHT22;1646;52.450;13.326;2023-06-22T08:15:28;27.30;99.90
3268;DHT22;1646;52.450;13.326;2023-06-22T08:20:27;27.40;99.90
3268;DHT22;1646;52.450;13.326;2023-06-22T08:25:25;27.50;99.90
3268;DHT22;1646;52.450;13.326;2023-06-22T08:30:24;27.60;99.90
3268;DHT22;1646;52.450;13.326;2023-06-22T08:35:23;27.80;99.90
3268;DHT22;1646;52.450;13.326;2023-06-22T08:40:22;28.00;99.90
3268;DHT22;1646;52.450;13.326;2023-06-22T08:45:21;28.10;99.90
3268;DHT22;1646;52.450;13.326;2023-06-22T08:50:20;28.20;99.90
3268;DHT22;1646;52.450;13.326;2023-06-22T08:55:20;28.50;99.50
3268;DHT22;1646;52.450;13.326;2023-06-22T09:00:19;29.10;99.00
3268;DHT22;1646;52.450;13.326;2023-06-22T09:05:17;29.50;98.70
3268;DHT22;1646;52.450;13.326;2023-06-22T09:10:16;29.60;97.50
3268;DHT22;1646;52.450;13.326;2023-06-22T09:15:16;29.60;96.90
3268;DHT22;1646;52.450;13.326;2023-06-22T09:20:15;29.50;98.90
3268;DHT22;1646;52.450;13.326;2023-06-22T09:25:13;29.70;97.30
3268;DHT22;1646;52.450;13.326;2023-06-22T09:30:12;29.90;97.10
3268;DHT22;1646;52.450;13.326;2023-06-22T09:35:11;29.80;95.40
3268;DHT22;1646;52.450;13.326;2023-06-22T09:40:11;29.50;97.40
3268;DHT22;1646;52.450;13.326;2023-06-22T09:45:10;29.60;96.30
3268;DHT22;1646;52.450;13.326;2023-06-22T09:50:10;29.40;95.60
3268;DHT22;1646;52.450;13.326;2023-06-22T09:55:08;29.60;96.70
3268;DHT22;1646;52.450;13.326;2023-06-22T10:00:08;29.80;96.10
3268;DHT22;1646;52.450;13.326;2023-06-22T10:05:08;30.20;96.20
3268;DHT22;1646;52.450;13.326;2023-06-22T10:10:09;30.00;94.70
3268;DHT22;1646;52.450;13.326;2023-06-22T10:15:08;30.00;95.90
3268;DHT22;1646;52.450;13.326;2023-06-22T10:20:08;30.40;96.80
3268;DHT22;1646;52.450;13.326;2023-06-22T10:25:12;30.90;96.10
3268;DHT22;1646;52.450;13.326;2023-06-22T10:30:12;30.70;92.40
3268;DHT22;1646;52.450;13.326;2023-06-22T10:35:10;31.10;95.30
3268;DHT22;1646;52.450;13.326;2023-06-22T10:40:13;31.30;91.00
3268;DHT22;1646;52.450;13.326;2023-06-22T10:45:12;31.50;91.10
3268;DHT22;1646;52.450;13.326;2023-06-22T10:50:11;32.00;86.30
3268;DHT22;1646;52.450;13.326;2023-06-22T10:55:10;32.00;88.70
3268;DHT22;1646;52.450;13.326;2023-06-22T11:00:11;32.60;90.00
3268;DHT22;1646;52.450;13.326;2023-06-22T11:05:09;32.90;86.90
3268;DHT22;1646;52.450;13.326;2023-06-22T11:10:08;32.80;82.10
3268;DHT22;1646;52.450;13.326;2023-06-22T11:15:08;32.40;83.10
3268;DHT22;1646;52.450;13.326;2023-06-22T11:20:08;32.50;85.00
3268;DHT22;1646;52.450;13.326;2023-06-22T11:25:08;33.00;85.30
3268;DHT22;1646;52.450;13.326;2023-06-22T11:30:09;33.40;81.00
3268;DHT22;1646;52.450;13.326;2023-06-22T11:35:09;33.70;78.10
3268;DHT22;1646;52.450;13.326;2023-06-22T11:40:08;33.50;78.30
3268;DHT22;1646;52.450;13.326;2023-06-22T11:45:07;33.60;75.80
3268;DHT22;1646;52.450;13.326;2023-06-22T11:50:06;33.80;75.20
3268;DHT22;1646;52.450;13.326;2023-06-22T11:55:07;33.90;72.70
3268;DHT22;1646;52.450;13.326;2023-06-22T12:00:06;34.00;73.10
3268;DHT22;1646;52.450;13.326;2023-06-22T12:05:12;33.70;71.80
3268;DHT22;1646;52.450;13.326;2023-06-22T12:10:12;33.40;72.00
3268;DHT22;1646;52.450;13.326;2023-06-22T12:15:10;33.10;72.50
3268;DHT22;1646;52.450;13.326;2023-06-22T12:20:10;33.50;75.80
3268;DHT22;1646;52.450;13.326;2023-06-22T12:25:09;33.70;71.90
3268;DHT22;1646;52.450;13.326;2023-06-22T12:30:09;33.60;71.30
3268;DHT22;1646;52.450;13.326;2023-06-22T12:35:08;33.90;71.80
3268;DHT22;1646;52.450;13.326;2023-06-22T12:40:11;34.20;71.30
3268;DHT22;1646;52.450;13.326;2023-06-22T12:45:11;34.20;70.40
3268;DHT22;1646;52.450;13.326;2023-06-22T12:50:10;33.90;69.30
3268;DHT22;1646;52.450;13.326;2023-06-22T12:55:09;33.50;68.20
3268;DHT22;1646;52.450;13.326;2023-06-22T13:00:08;33.20;69.60
3268;DHT22;1646;52.450;13.326;2023-06-22T13:05:09;33.10;72.20
3268;DHT22;1646;52.450;13.326;2023-06-22T13:10:07;33.40;73.60
3268;DHT22;1646;52.450;13.326;2023-06-22T13:15:07;33.70;69.40
3268;DHT22;1646;52.450;13.326;2023-06-22T13:20:08;34.00;71.90
3268;DHT22;1646;52.450;13.326;2023-06-22T13:25:07;34.20;70.00
3268;DHT22;1646;52.450;13.326;2023-06-22T13:30:09;34.00;67.50
3268;DHT22;1646;52.450;13.326;2023-06-22T13:35:12;33.90;68.50
3268;DHT22;1646;52.450;13.326;2023-06-22T13:40:11;33.80;68.20
3268;DHT22;1646;52.450;13.326;2023-06-22T13:45:09;33.70;70.00
3268;DHT22;1646;52.450;13.326;2023-06-22T13:50:08;34.00;68.70
3268;DHT22;1646;52.450;13.326;2023-06-22T13:55:09;34.10;66.40
3268;DHT22;1646;52.450;13.326;2023-06-22T14:00:08;34.00;68.20
3268;DHT22;1646;52.450;13.326;2023-06-22T14:05:10;34.00;68.30
3268;DHT22;1646;52.450;13.326;2023-06-22T14:10:11;34.00;67.90
3268;DHT22;1646;52.450;13.326;2023-06-22T14:15:10;34.30;66.90
3268;DHT22;1646;52.450;13.326;2023-06-22T14:20:09;34.50;68.60
3268;DHT22;1646;52.450;13.326;2023-06-22T14:25:07;34.60;67.00
3268;DHT22;1646;52.450;13.326;2023-06-22T14:30:08;34.50;66.60
3268;DHT22;1646;52.450;13.326;2023-06-22T14:35:06;34.30;66.50
3268;DHT22;1646;52.450;13.326;2023-06-22T14:40:06;34.20;64.70
3268;DHT22;1646;52.450;13.326;2023-06-22T14:45:07;34.00;65.80
3268;DHT22;1646;52.450;13.326;2023-06-22T14:50:06;33.90;64.60
3268;DHT22;1646;52.450;13.326;2023-06-22T14:55:05;33.60;66.90
3268;DHT22;1646;52.450;13.326;2023-06-22T15:00:05;33.70;68.70
3268;DHT22;1646;52.450;13.326;2023-06-22T15:05:05;33.90;68.30
3268;DHT22;1646;52.450;13.326;2023-06-22T15:10:05;34.10;68.30
3268;DHT22;1646;52.450;13.326;2023-06-22T15:15:04;34.20;68.50
3268;DHT22;1646;52.450;13.326;2023-06-22T15:20:03;34.30;65.70
3268;DHT22;1646;52.450;13.326;2023-06-22T15:25:04;34.30;68.80
3268;DHT22;1646;52.450;13.326;2023-06-22T15:30:03;34.20;68.20
3268;DHT22;1646;52.450;13.326;2023-06-22T15:35:02;34.20;68.40
3268;DHT22;1646;52.450;13.326;2023-06-22T15:40:01;34.30;65.00
3268;DHT22;1646;52.450;13.326;2023-06-22T15:45:01;34.20;64.80
3268;DHT22;1646;52.450;13.326;2023-06-22T15:49:59;33.80;67.30
3268;DHT22;1646;52.450;13.326;2023-06-22T15:54:57;33.50;67.80
3268;DHT22;1646;52.450;13.326;2023-06-22T15:59:57;33.50;65.90
3268;DHT22;1646;52.450;13.326;2023-06-22T16:04:57;33.30;66.10
3268;DHT22;1646;52.450;13.326;2023-06-22T16:09:56;33.00;68.60
3268;DHT22;1646;52.450;13.326;2023-06-22T16:14:54;33.10;68.80
3268;DHT22;1646;52.450;13.326;2023-06-22T16:19:53;33.10;68.60
3268;DHT22;1646;52.450;13.326;2023-06-22T16:24:54;33.30;69.10
3268;DHT22;1646;52.450;13.326;2023-06-22T16:29:52;33.20;69.10
3268;DHT22;1646;52.450;13.326;2023-06-22T16:34:51;33.00;68.20
3268;DHT22;1646;52.450;13.326;2023-06-22T16:39:49;32.90;69.50
3268;DHT22;1646;52.450;13.326;2023-06-22T16:44:48;32.70;68.70
3268;DHT22;1646;52.450;13.326;2023-06-22T16:49:47;32.30;69.00
3268;DHT22;1646;52.450;13.326;2023-06-22T16:54:46;32.00;70.20
3268;DHT22;1646;52.450;13.326;2023-06-22T16:59:58;31.60;70.10
3268;DHT22;1646;52.450;13.326;2023-06-22T17:04:56;31.20;71.00
3268;DHT22;1646;52.450;13.326;2023-06-22T17:09:56;30.90;71.10
3268;DHT22;1646;52.450;13.326;2023-06-22T17:14:59;30.60;72.10
3268;DHT22;1646;52.450;13.326;2023-06-22T17:19:58;30.40;72.70
3268;DHT22;1646;52.450;13.326;2023-06-22T17:24:56;30.20;73.40
3268;DHT22;1646;52.450;13.326;2023-06-22T17:30:08;30.10;73.70
3268;DHT22;1646;52.450;13.326;2023-06-22T17:35:10;29.90;73.90
3268;DHT22;1646;52.450;13.326;2023-06-22T17:40:14;29.80;75.00
3268;DHT22;1646;52.450;13.326;2023-06-22T17:45:17;29.70;74.80
3268;DHT22;1646;52.450;13.326;2023-06-22T17:50:16;29.60;75.30
3268;DHT22;1646;52.450;13.326;2023-06-22T17:55:15;29.60;75.40
3268;DHT22;1646;52.450;13.326;2023-06-22T18:00:14;29.50;76.00
3268;DHT22;1646;52.450;13.326;2023-06-22T18:05:15;29.40;77.10
3268;DHT22;1646;52.450;13.326;2023-06-22T18:10:14;29.30;76.80
3268;DHT22;1646;52.450;13.326;2023-06-22T18:15:12;29.20;77.50
3268;DHT22;1646;52.450;13.326;2023-06-22T18:20:11;29.10;78.00
3268;DHT22;1646;52.450;13.326;2023-06-22T18:25:12;29.00;78.80
3268;DHT22;1646;52.450;13.326;2023-06-22T18:30:11;28.80;78.40
3268;DHT22;1646;52.450;13.326;2023-06-22T18:35:10;28.80;78.90
3268;DHT22;1646;52.450;13.326;2023-06-22T18:40:09;28.70;78.90
3268;DHT22;1646;52.450;13.326;2023-06-22T18:45:23;28.60;79.20
3268;DHT22;1646;52.450;13.326;2023-06-22T18:50:36;28.50;79.40
3268;DHT22;1646;52.450;13.326;2023-06-22T18:55:34;28.40;79.30
3268;DHT22;1646;52.450;13.326;2023-06-22T19:00:34;28.30;79.80
3268;DHT22;1646;52.450;13.326;2023-06-22T19:05:40;28.20;81.00
3268;DHT22;1646;52.450;13.326;2023-06-22T19:10:39;28.10;80.30
3268;DHT22;1646;52.450;13.326;2023-06-22T19:15:41;28.00;80.60
3268;DHT22;1646;52.450;13.326;2023-06-22T19:20:39;27.90;80.80
3268;DHT22;1646;52.450;13.326;2023-06-22T19:25:45;27.80;80.80
3268;DHT22;1646;52.450;13.326;2023-06-22T19:30:45;27.80;81.10
3268;DHT22;1646;52.450;13.326;2023-06-22T19:35:43;27.70;81.60
3268;DHT22;1646;52.450;13.326;2023-06-22T19:40:41;27.70;81.40
3268;DHT22;1646;52.450;13.326;2023-06-22T19:45:40;27.60;82.20
3268;DHT22;1646;52.450;13.326;2023-06-22T19:50:41;27.50;81.80
3268;DHT22;1646;52.450;13.326;2023-06-22T19:55:41;27.50;82.10
3268;DHT22;1646;52.450;13.326;2023-06-22T20:00:40;27.40;82.00
3268;DHT22;1646;52.450;13.326;2023-06-22T20:05:43;27.30;83.40
3268;DHT22;1646;52.450;13.326;2023-06-22T20:10:43;27.30;84.30
3268;DHT22;1646;52.450;13.326;2023-06-22T20:15:42;27.10;85.40
3268;DHT22;1646;52.450;13.326;2023-06-22T20:20:44;27.00;87.00
3268;DHT22;1646;52.450;13.326;2023-06-22T20:25:42;26.90;88.50
3268;DHT22;1646;52.450;13.326;2023-06-22T20:31:00;26.80;91.10
3268;DHT22;1646;52.450;13.326;2023-06-22T20:36:01;25.20;99.90
3268;DHT22;1646;52.450;13.326;2023-06-22T20:40:59;23.20;99.90
3268;DHT22;1646;52.450;13.326;2023-06-22T20:45:57;22.50;99.90
3268;DHT22;1646;52.450;13.326;2023-06-22T20:50:56;22.30;99.90
3268;DHT22;1646;52.450;13.326;2023-06-22T20:55:56;22.40;99.90
3268;DHT22;1646;52.450;13.326;2023-06-22T21:00:54;22.30;99.90
3268;DHT22;1646;52.450;13.326;2023-06-22T21:05:57;22.30;99.90
3268;DHT22;1646;52.450;13.326;2023-06-22T21:10:57;22.40;99.90
3268;DHT22;1646;52.450;13.326;2023-06-22T21:15:55;22.50;99.90
3268;DHT22;1646;52.450;13.326;2023-06-22T21:20:54;22.60;99.90
3268;DHT22;1646;52.450;13.326;2023-06-22T21:25:52;22.70;99.90
3268;DHT22;1646;52.450;13.326;2023-06-22T21:30:52;22.80;99.90
3268;DHT22;1646;52.450;13.326;2023-06-22T21:35:50;22.90;99.90
3268;DHT22;1646;52.450;13.326;2023-06-22T21:40:48;23.00;99.90
3268;DHT22;1646;52.450;13.326;2023-06-22T21:45:46;22.70;99.90
3268;DHT22;1646;52.450;13.326;2023-06-22T21:50:46;22.30;99.90
3268;DHT22;1646;52.450;13.326;2023-06-22T21:55:44;22.00;99.90
3268;DHT22;1646;52.450;13.326;2023-06-22T22:00:43;22.00;99.90
3268;DHT22;1646;52.450;13.326;2023-06-22T22:05:41;22.20;99.90
3268;DHT22;1646;52.450;13.326;2023-06-22T22:10:44;22.30;99.90
3268;DHT22;1646;52.450;13.326;2023-06-22T22:15:42;22.50;99.90
3268;DHT22;1646;52.450;13.326;2023-06-22T22:20:40;22.50;99.90
3268;DHT22;1646;52.450;13.326;2023-06-22T22:25:39;22.50;99.90
3268;DHT22;1646;52.450;13.326;2023-06-22T22:30:38;22.50;99.90
3268;DHT22;1646;52.450;13.326;2023-06-22T22:35:37;22.40;99.90
3268;DHT22;1646;52.450;13.326;2023-06-22T22:40:35;22.20;99.90
3268;DHT22;1646;52.450;13.326;2023-06-22T22:45:33;22.10;99.90
3268;DHT22;1646;52.450;13.326;2023-06-22T22:50:33;22.00;99.90
3268;DHT22;1646;52.450;13.326;2023-06-22T22:55:31;22.00;99.90
3268;DHT22;1646;52.450;13.326;2023-06-22T23:00:30;21.90;99.90
3268;DHT22;1646;52.450;13.326;2023-06-22T23:05:28;21.80;99.90
3268;DHT22;1646;52.450;13.326;2023-06-22T23:10:28;21.80;99.90
3268;DHT22;1646;52.450;13.326;2023-06-22T23:15:27;21.80;99.90
3268;DHT22;1646;52.450;13.326;2023-06-22T23:20:25;21.70;99.90
3268;DHT22;1646;52.450;13.326;2023-06-22T23:25:29;21.70;99.90
3268;DHT22;1646;52.450;13.326;2023-06-22T23:30:30;21.60;99.90
3268;DHT22;1646;52.450;13.326;2023-06-22T23:35:28;21.60;99.90
3268;DHT22;1646;52.450;13.326;2023-06-22T23:40:28;21.50;99.90
3268;DHT22;1646;52.450;13.326;2023-06-22T23:45:27;21.30;99.90
3268;DHT22;1646;52.450;13.326;2023-06-22T23:50:26;21.30;99.90
3268;DHT22;1646;52.450;13.326;2023-06-22T23:55:25;21.20;99.90
